createdAt,value
2018-09-09T00:01:23.837Z,15.34
2018-09-09T00:03:51.956Z,15.34
2018-09-09T00:06:19.991Z,15.35
2018-09-09T00:08:48.012Z,15.35
2018-09-09T00:11:16.063Z,15.37
2018-09-09T00:13:44.259Z,15.38
2018-09-09T00:16:12.281Z,15.37
2018-09-09T00:18:40.336Z,15.39
2018-09-09T00:21:08.384Z,15.39
2018-09-09T00:23:36.456Z,15.39
2018-09-09T00:26:05.512Z,15.39
2018-09-09T00:28:33.866Z,15.38
2018-09-09T00:31:01.901Z,15.38
2018-09-09T00:33:30.059Z,15.34
2018-09-09T00:35:58.126Z,15.32
2018-09-09T00:38:26.542Z,15.27
2018-09-09T00:40:54.576Z,15.24
2018-09-09T00:43:22.694Z,15.22
2018-09-09T00:45:50.953Z,15.20
2018-09-09T00:48:19.021Z,15.16
2018-09-09T00:50:52.492Z,15.13
2018-09-09T00:53:25.781Z,15.10
2018-09-09T00:55:54.025Z,15.08
2018-09-09T00:58:22.052Z,15.09
2018-09-09T01:00:55.324Z,15.06
2018-09-09T01:03:23.397Z,15.07
2018-09-09T01:05:51.408Z,15.05
2018-09-09T01:08:19.653Z,15.05
2018-09-09T01:10:48.256Z,15.04
2018-09-09T01:13:16.664Z,15.04
2018-09-09T01:15:44.697Z,15.02
2018-09-09T01:18:13.313Z,15.01
2018-09-09T01:20:41.518Z,15.01
2018-09-09T01:23:09.544Z,15.02
2018-09-09T01:25:37.580Z,15.01
2018-09-09T01:28:05.724Z,15.01
2018-09-09T01:30:33.769Z,15.01
2018-09-09T01:33:01.801Z,14.97
2018-09-09T01:35:29.868Z,14.96
2018-09-09T01:37:57.913Z,14.93
2018-09-09T01:40:25.960Z,14.93
2018-09-09T01:42:54.155Z,14.91
2018-09-09T01:45:22.198Z,14.88
2018-09-09T01:47:50.248Z,14.86
2018-09-09T01:50:18.368Z,14.84
2018-09-09T01:52:46.435Z,14.83
2018-09-09T01:55:14.472Z,14.82
2018-09-09T01:57:42.505Z,14.80
2018-09-09T02:00:10.966Z,14.79
2018-09-09T02:02:39.008Z,14.76
2018-09-09T02:05:07.131Z,14.74
2018-09-09T02:07:35.172Z,14.71
2018-09-09T02:10:03.244Z,14.70
2018-09-09T02:12:31.298Z,14.67
2018-09-09T02:14:59.336Z,14.65
2018-09-09T02:17:27.524Z,14.63
2018-09-09T02:19:55.721Z,14.59
2018-09-09T02:22:23.751Z,14.58
2018-09-09T02:24:51.975Z,14.54
2018-09-09T02:27:20.029Z,14.53
2018-09-09T02:29:48.069Z,14.51
2018-09-09T02:32:16.468Z,14.48
2018-09-09T02:34:44.556Z,14.46
2018-09-09T02:37:12.612Z,14.44
2018-09-09T02:39:40.644Z,14.43
2018-09-09T02:42:08.746Z,14.43
2018-09-09T02:44:36.920Z,14.42
2018-09-09T02:47:05.218Z,14.39
2018-09-09T02:49:33.246Z,14.38
2018-09-09T02:52:01.273Z,14.38
2018-09-09T02:54:29.612Z,14.39
2018-09-09T02:56:58.117Z,14.38
2018-09-09T02:59:26.186Z,14.41
2018-09-09T03:01:54.216Z,14.43
2018-09-09T03:04:22.818Z,14.44
2018-09-09T03:06:50.870Z,14.46
2018-09-09T03:09:19.081Z,14.49
2018-09-09T03:11:47.144Z,14.50
2018-09-09T03:14:15.520Z,14.52
2018-09-09T03:16:43.564Z,14.54
2018-09-09T03:19:11.603Z,14.58
2018-09-09T03:21:39.762Z,14.57
2018-09-09T03:24:07.806Z,14.63
2018-09-09T03:26:35.840Z,14.64
2018-09-09T03:29:04.669Z,14.66
2018-09-09T03:31:32.701Z,14.69
2018-09-09T03:34:00.749Z,14.74
2018-09-09T03:36:29.113Z,14.77
2018-09-09T03:38:57.283Z,14.79
2018-09-09T03:41:25.295Z,14.82
2018-09-09T03:43:53.967Z,14.82
2018-09-09T03:46:21.997Z,14.84
2018-09-09T03:48:50.018Z,14.84
2018-09-09T03:51:18.213Z,14.87
2018-09-09T03:53:46.381Z,14.87
2018-09-09T03:56:14.468Z,14.85
2018-09-09T03:58:42.654Z,14.85
2018-09-09T04:01:10.693Z,14.85
2018-09-09T04:03:38.831Z,14.87
2018-09-09T04:06:06.912Z,14.89
2018-09-09T04:08:34.959Z,14.89
2018-09-09T04:11:07.436Z,14.91
2018-09-09T04:13:35.464Z,14.90
2018-09-09T04:16:03.488Z,14.92
2018-09-09T04:18:31.516Z,14.88
2018-09-09T04:20:59.544Z,14.88
2018-09-09T04:23:27.955Z,14.91
2018-09-09T04:25:55.992Z,14.86
2018-09-09T04:28:24.293Z,14.86
2018-09-09T04:30:52.891Z,14.88
2018-09-09T04:33:21.156Z,14.92
2018-09-09T04:35:49.591Z,14.95
2018-09-09T04:38:24.682Z,14.97
2018-09-09T04:40:52.769Z,14.99
2018-09-09T04:43:21.004Z,15.00
2018-09-09T04:45:49.248Z,15.02
2018-09-09T04:48:17.288Z,15.03
2018-09-09T04:50:45.741Z,15.03
2018-09-09T04:53:14.015Z,15.05
2018-09-09T04:55:48.739Z,15.02
2018-09-09T04:58:16.931Z,15.01
2018-09-09T05:00:44.967Z,15.00
2018-09-09T05:03:13.368Z,15.03
2018-09-09T05:05:41.404Z,15.01
2018-09-09T05:08:09.438Z,15.07
2018-09-09T05:10:37.469Z,15.08
2018-09-09T05:13:05.770Z,15.07
2018-09-09T05:15:33.797Z,15.03
2018-09-09T05:18:02.096Z,15.02
2018-09-09T05:20:30.196Z,15.01
2018-09-09T05:22:58.288Z,15.02
2018-09-09T05:25:26.332Z,15.01
2018-09-09T05:27:54.446Z,15.05
2018-09-09T05:30:22.453Z,15.10
2018-09-09T05:32:50.560Z,15.14
2018-09-09T05:35:18.781Z,15.16
2018-09-09T05:37:46.830Z,15.16
2018-09-09T05:40:14.886Z,15.18
2018-09-09T05:42:43.158Z,15.21
2018-09-09T05:45:11.317Z,15.22
2018-09-09T05:47:39.369Z,15.25
2018-09-09T05:50:07.466Z,15.29
2018-09-09T05:52:35.499Z,15.34
2018-09-09T05:55:03.844Z,15.34
2018-09-09T05:57:31.898Z,15.39
2018-09-09T06:00:00.243Z,15.44
2018-09-09T06:02:28.282Z,15.48
2018-09-09T06:04:56.328Z,15.52
2018-09-09T06:07:24.455Z,15.57
2018-09-09T06:09:52.556Z,15.57
2018-09-09T06:12:20.903Z,15.60
2018-09-09T06:14:48.941Z,15.65
2018-09-09T06:17:33.912Z,15.68
2018-09-09T06:20:03.243Z,15.72
2018-09-09T06:22:51.604Z,15.77
2018-09-09T06:25:19.948Z,15.83
2018-09-09T06:27:48.093Z,15.85
2018-09-09T06:30:16.606Z,15.90
2018-09-09T06:32:44.664Z,15.97
2018-09-09T06:35:12.702Z,16.04
2018-09-09T06:37:40.728Z,16.08
2018-09-09T06:40:08.993Z,16.13
2018-09-09T06:42:37.037Z,16.16
2018-09-09T06:45:05.855Z,16.23
2018-09-09T06:47:33.912Z,16.29
2018-09-09T06:50:01.981Z,16.33
2018-09-09T06:52:30.018Z,16.37
2018-09-09T06:54:58.384Z,16.42
2018-09-09T06:57:26.356Z,16.45
2018-09-09T06:59:54.424Z,16.51
2018-09-09T07:02:22.526Z,16.57
2018-09-09T07:04:50.647Z,16.61
2018-09-09T07:07:18.920Z,16.69
2018-09-09T07:09:47.011Z,16.76
2018-09-09T07:12:15.264Z,16.78
2018-09-09T07:14:43.430Z,16.86
2018-09-09T07:17:11.546Z,16.91
2018-09-09T07:19:39.709Z,16.97
2018-09-09T07:22:08.134Z,17.07
2018-09-09T07:24:36.315Z,17.15
2018-09-09T07:27:04.681Z,17.24
2018-09-09T07:29:32.729Z,17.30
2018-09-09T07:32:00.833Z,17.37
2018-09-09T07:34:28.884Z,17.44
2018-09-09T07:36:57.198Z,17.53
2018-09-09T07:39:25.477Z,17.64
2018-09-09T07:41:53.537Z,17.73
2018-09-09T07:44:21.608Z,17.82
2018-09-09T07:46:49.654Z,17.93
2018-09-09T07:49:17.791Z,18.04
2018-09-09T07:51:46.148Z,18.09
2018-09-09T07:54:14.510Z,18.16
2018-09-09T07:56:42.581Z,18.24
2018-09-09T07:59:10.639Z,18.29
2018-09-09T08:01:38.672Z,18.37
2018-09-09T08:04:06.699Z,18.41
2018-09-09T08:06:34.735Z,18.48
2018-09-09T08:09:02.903Z,18.62
2018-09-09T08:11:37.039Z,18.76
2018-09-09T08:14:05.700Z,18.96
2018-09-09T08:16:34.081Z,19.18
2018-09-09T08:19:02.291Z,19.35
2018-09-09T08:21:30.357Z,19.60
2018-09-09T08:23:58.706Z,19.87
2018-09-09T08:26:26.811Z,20.02
2018-09-09T08:28:54.930Z,20.29
2018-09-09T08:31:23.536Z,20.50
2018-09-09T08:33:51.581Z,20.67
2018-09-09T08:36:19.607Z,20.79
2018-09-09T08:38:47.878Z,20.78
2018-09-09T08:41:15.914Z,20.66
2018-09-09T08:43:44.221Z,20.77
2018-09-09T08:46:12.276Z,20.87
2018-09-09T08:48:40.512Z,20.98
2018-09-09T08:51:08.556Z,21.14
2018-09-09T08:53:36.607Z,21.15
2018-09-09T08:56:04.949Z,21.22
2018-09-09T08:58:32.986Z,21.43
2018-09-09T09:01:01.039Z,21.62
2018-09-09T09:03:29.400Z,21.86
2018-09-09T09:06:19.281Z,21.94
2018-09-09T09:11:37.656Z,22.23
2018-09-09T09:14:05.723Z,22.40
2018-09-09T09:16:33.745Z,22.51
2018-09-09T09:19:01.859Z,22.72
2018-09-09T09:21:30.921Z,22.77
2018-09-09T09:23:59.124Z,22.85
2018-09-09T09:26:27.154Z,22.94
2018-09-09T09:28:55.354Z,23.02
2018-09-09T09:31:23.562Z,23.18
2018-09-09T09:33:51.579Z,23.28
2018-09-09T09:36:19.620Z,23.23
2018-09-09T09:38:48.666Z,23.06
2018-09-09T09:41:16.701Z,23.06
2018-09-09T09:43:44.733Z,23.25
2018-09-09T09:46:15.752Z,23.40
2018-09-09T09:48:43.786Z,23.52
2018-09-09T09:51:12.000Z,23.63
2018-09-09T09:53:40.104Z,23.49
2018-09-09T09:56:08.277Z,23.51
2018-09-09T09:58:36.477Z,23.47
2018-09-09T10:01:04.769Z,23.45
2018-09-09T10:03:32.843Z,23.49
2018-09-09T10:06:00.826Z,23.35
2018-09-09T10:08:28.877Z,23.24
2018-09-09T10:10:56.951Z,23.32
2018-09-09T10:13:24.986Z,23.27
2018-09-09T10:15:53.025Z,23.17
2018-09-09T10:18:21.057Z,23.24
2018-09-09T10:20:49.105Z,23.25
2018-09-09T10:23:17.118Z,23.24
2018-09-09T10:25:45.155Z,23.45
2018-09-09T10:28:13.200Z,23.65
2018-09-09T10:30:41.410Z,23.64
2018-09-09T10:33:09.469Z,23.62
2018-09-09T10:35:37.501Z,23.67
2018-09-09T10:38:06.520Z,23.74
2018-09-09T10:40:34.567Z,23.80
2018-09-09T10:43:02.632Z,23.81
2018-09-09T10:45:30.671Z,23.81
2018-09-09T10:47:58.719Z,23.68
2018-09-09T10:50:26.749Z,23.69
2018-09-09T10:52:54.786Z,23.73
2018-09-09T10:55:22.868Z,23.80
2018-09-09T10:57:50.917Z,23.88
2018-09-09T11:00:18.933Z,23.79
2018-09-09T11:02:46.980Z,23.76
2018-09-09T11:05:15.035Z,24.00
2018-09-09T11:07:43.072Z,24.09
2018-09-09T11:10:11.175Z,24.14
2018-09-09T11:12:39.324Z,24.25
2018-09-09T11:15:07.270Z,24.12
2018-09-09T11:17:35.520Z,24.16
2018-09-09T11:20:04.688Z,24.37
2018-09-09T11:22:32.717Z,24.67
2018-09-09T11:25:00.749Z,24.91
2018-09-09T11:27:28.796Z,25.15
2018-09-09T11:29:57.077Z,25.41
2018-09-09T11:32:25.369Z,25.57
2018-09-09T11:34:53.410Z,25.73
2018-09-09T11:37:21.447Z,25.79
2018-09-09T11:39:49.578Z,25.85
2018-09-09T11:42:17.757Z,26.10
2018-09-09T11:44:45.840Z,26.17
2018-09-09T11:47:13.881Z,26.04
2018-09-09T11:49:41.931Z,25.79
2018-09-09T11:52:09.972Z,25.59
2018-09-09T11:54:38.024Z,25.51
2018-09-09T11:57:06.079Z,25.56
2018-09-09T11:59:34.273Z,25.59
2018-09-09T12:02:02.340Z,25.56
2018-09-09T12:04:30.721Z,25.55
2018-09-09T12:06:59.727Z,25.78
2018-09-09T12:09:27.787Z,25.95
2018-09-09T12:11:55.854Z,26.10
2018-09-09T12:14:24.184Z,26.31
2018-09-09T12:16:52.240Z,26.28
2018-09-09T12:19:20.272Z,26.29
2018-09-09T12:21:48.313Z,26.27
2018-09-09T12:24:16.359Z,26.26
2018-09-09T12:26:44.406Z,26.42
2018-09-09T12:29:12.624Z,26.55
2018-09-09T12:31:40.657Z,26.62
2018-09-09T12:34:08.701Z,26.58
2018-09-09T12:36:36.942Z,26.60
2018-09-09T12:39:06.499Z,26.75
2018-09-09T12:41:34.540Z,26.83
2018-09-09T12:44:08.092Z,26.96
2018-09-09T12:46:41.524Z,27.04
2018-09-09T12:49:09.716Z,26.97
2018-09-09T12:51:37.850Z,26.89
2018-09-09T12:54:05.913Z,26.94
2018-09-09T12:56:33.993Z,27.04
2018-09-09T12:59:02.085Z,26.97
2018-09-09T13:01:30.176Z,26.80
2018-09-09T13:03:58.607Z,26.76
2018-09-09T13:06:26.985Z,26.77
2018-09-09T13:08:55.121Z,26.62
2018-09-09T13:11:23.197Z,26.59
2018-09-09T13:13:51.248Z,26.39
2018-09-09T13:16:19.850Z,26.36
2018-09-09T13:18:47.922Z,26.23
2018-09-09T13:21:15.967Z,26.02
2018-09-09T13:23:44.012Z,25.84
2018-09-09T13:26:12.066Z,25.93
2018-09-09T13:28:40.205Z,26.15
2018-09-09T13:31:08.255Z,26.24
2018-09-09T13:33:36.294Z,26.16
2018-09-09T13:36:05.151Z,26.11
2018-09-09T13:38:33.368Z,26.10
2018-09-09T13:41:01.436Z,25.94
2018-09-09T13:43:29.660Z,25.78
2018-09-09T13:45:57.706Z,25.57
2018-09-09T13:48:25.752Z,25.43
2018-09-09T13:50:53.798Z,25.41
2018-09-09T13:53:21.865Z,25.40
2018-09-09T13:55:50.281Z,25.33
2018-09-09T13:58:19.465Z,25.31
2018-09-09T14:00:47.821Z,25.37
2018-09-09T14:03:15.881Z,25.27
2018-09-09T14:05:44.332Z,25.22
2018-09-09T14:08:12.423Z,25.21
2018-09-09T14:10:40.479Z,25.18
2018-09-09T14:13:08.549Z,25.19
2018-09-09T14:15:41.620Z,25.21
2018-09-09T14:18:09.691Z,25.15
2018-09-09T14:20:37.731Z,25.17
2018-09-09T14:23:05.868Z,25.22
2018-09-09T14:25:34.211Z,25.23
2018-09-09T14:28:02.381Z,25.16
2018-09-09T14:33:27.088Z,25.11
2018-09-09T14:35:55.120Z,25.19
2018-09-09T14:38:24.213Z,25.24
2018-09-09T14:40:52.253Z,25.30
2018-09-09T14:43:26.689Z,25.31
2018-09-09T14:45:55.564Z,25.43
2018-09-09T14:48:23.563Z,25.52
2018-09-09T14:50:51.625Z,25.63
2018-09-09T14:53:19.855Z,25.59
2018-09-09T14:55:47.840Z,25.49
2018-09-09T14:58:15.929Z,25.49
2018-09-09T15:00:43.986Z,25.45
2018-09-09T15:03:12.030Z,25.38
2018-09-09T15:05:40.090Z,25.36
2018-09-09T15:08:08.152Z,25.34
2018-09-09T15:10:36.376Z,25.30
2018-09-09T15:13:05.005Z,25.23
2018-09-09T15:15:33.041Z,25.20
2018-09-09T15:18:01.529Z,25.16
2018-09-09T15:20:29.649Z,25.19
2018-09-09T15:22:57.772Z,25.19
2018-09-09T15:25:25.877Z,25.21
2018-09-09T15:27:53.952Z,25.13
2018-09-09T15:30:22.140Z,25.11
2018-09-09T15:32:50.244Z,25.08
2018-09-09T15:35:18.288Z,25.06
2018-09-09T15:37:46.336Z,24.97
2018-09-09T15:40:14.409Z,24.94
2018-09-09T15:42:42.685Z,24.86
2018-09-09T15:45:10.926Z,24.78
2018-09-09T15:47:38.963Z,24.70
2018-09-09T15:50:07.021Z,24.66
2018-09-09T15:52:35.123Z,24.63
2018-09-09T15:55:03.157Z,24.61
2018-09-09T15:57:31.473Z,24.56
2018-09-09T15:59:59.541Z,24.47
2018-09-09T16:02:27.577Z,24.45
2018-09-09T16:04:56.051Z,24.47
2018-09-09T16:07:24.152Z,24.51
2018-09-09T16:09:52.545Z,24.53
2018-09-09T16:12:20.575Z,24.53
2018-09-09T16:14:48.727Z,24.52
2018-09-09T16:17:16.950Z,24.49
2018-09-09T16:19:44.990Z,24.47
2018-09-09T16:22:13.048Z,24.41
2018-09-09T16:24:41.284Z,24.35
2018-09-09T16:27:09.365Z,24.34
2018-09-09T16:29:37.419Z,24.34
2018-09-09T16:32:05.490Z,24.29
2018-09-09T16:34:33.583Z,24.31
2018-09-09T16:37:01.667Z,24.34
2018-09-09T16:39:29.713Z,24.30
2018-09-09T16:41:57.756Z,24.30
2018-09-09T16:44:25.805Z,24.30
2018-09-09T16:46:53.845Z,24.31
2018-09-09T16:49:21.903Z,24.32
2018-09-09T16:51:50.268Z,24.31
2018-09-09T16:54:18.612Z,24.27
2018-09-09T16:56:46.700Z,24.27
2018-09-09T16:59:15.048Z,24.29
2018-09-09T17:01:43.439Z,24.26
2018-09-09T17:04:11.985Z,24.23
2018-09-09T17:06:40.149Z,24.22
2018-09-09T17:09:09.409Z,24.16
2018-09-09T17:11:37.761Z,24.12
2018-09-09T17:14:05.924Z,24.10
2018-09-09T17:16:33.940Z,24.03
2018-09-09T17:19:02.139Z,23.96
2018-09-09T17:21:30.197Z,23.90
2018-09-09T17:23:58.293Z,23.83
2018-09-09T17:26:26.337Z,23.76
2018-09-09T17:28:54.372Z,23.70
2018-09-09T17:31:22.418Z,23.64
2018-09-09T17:33:50.504Z,23.55
2018-09-09T17:36:18.576Z,23.48
2018-09-09T17:38:46.644Z,23.43
2018-09-09T17:41:14.692Z,23.37
2018-09-09T17:43:42.737Z,23.31
2018-09-09T17:46:10.832Z,23.26
2018-09-09T17:48:39.024Z,23.21
2018-09-09T17:51:07.056Z,23.16
2018-09-09T17:53:35.637Z,23.10
2018-09-09T17:56:04.881Z,23.03
2018-09-09T17:58:33.090Z,22.95
2018-09-09T18:01:01.234Z,22.85
2018-09-09T18:03:29.289Z,22.77
2018-09-09T18:05:57.548Z,22.71
2018-09-09T18:08:25.592Z,22.65
2018-09-09T18:10:53.668Z,22.58
2018-09-09T18:13:21.702Z,22.51
2018-09-09T18:15:49.833Z,22.41
2018-09-09T18:18:17.815Z,22.35
2018-09-09T18:20:45.925Z,22.28
2018-09-09T18:23:14.505Z,22.18
2018-09-09T18:25:48.796Z,22.10
2018-09-09T18:28:17.009Z,21.98
2018-09-09T18:30:45.062Z,21.88
2018-09-09T18:33:13.169Z,21.78
2018-09-09T18:35:41.233Z,21.70
2018-09-09T18:38:09.552Z,21.60
2018-09-09T18:40:37.592Z,21.52
2018-09-09T18:43:05.653Z,21.42
2018-09-09T18:45:34.095Z,21.34
2018-09-09T18:48:02.656Z,21.27
2018-09-09T18:50:30.958Z,21.19
2018-09-09T18:52:59.045Z,21.14
2018-09-09T18:55:27.101Z,21.08
2018-09-09T18:57:55.340Z,21.02
2018-09-09T19:00:23.412Z,20.99
2018-09-09T19:02:51.449Z,20.96
2018-09-09T19:05:19.488Z,20.92
2018-09-09T19:07:47.969Z,20.87
2018-09-09T19:10:16.075Z,20.81
2018-09-09T19:12:44.165Z,20.76
2018-09-09T19:15:12.232Z,20.72
2018-09-09T19:17:40.538Z,20.66
2018-09-09T19:20:08.940Z,20.61
2018-09-09T19:22:36.973Z,20.53
2018-09-09T19:25:05.039Z,20.49
2018-09-09T19:27:33.253Z,20.40
2018-09-09T19:30:01.509Z,20.32
2018-09-09T19:32:29.587Z,20.23
2018-09-09T19:34:57.660Z,20.14
2018-09-09T19:37:26.014Z,20.07
2018-09-09T19:39:54.071Z,20.01
2018-09-09T19:42:22.639Z,19.95
2018-09-09T19:44:50.683Z,19.87
2018-09-09T19:47:18.745Z,19.78
2018-09-09T19:49:46.834Z,19.71
2018-09-09T19:52:14.873Z,19.67
2018-09-09T19:54:42.920Z,19.59
2018-09-09T19:57:12.135Z,19.53
2018-09-09T19:59:40.190Z,19.46
2018-09-09T20:02:08.279Z,19.40
2018-09-09T20:04:36.768Z,19.35
2018-09-09T20:07:05.018Z,19.31
2018-09-09T20:09:33.721Z,19.25
2018-09-09T20:12:01.781Z,19.21
2018-09-09T20:14:29.873Z,19.14
2018-09-09T20:16:58.045Z,19.09
2018-09-09T20:19:26.096Z,19.05
2018-09-09T20:21:54.131Z,19.02
2018-09-09T20:24:23.189Z,18.98
2018-09-09T20:26:51.235Z,18.96
2018-09-09T20:32:11.528Z,18.88
2018-09-09T20:34:39.600Z,18.84
2018-09-09T20:37:07.820Z,18.83
2018-09-09T20:39:36.355Z,18.79
2018-09-09T20:42:04.804Z,18.75
2018-09-09T20:44:33.061Z,18.65
2018-09-09T20:47:01.103Z,18.59
2018-09-09T20:49:29.158Z,18.57
2018-09-09T20:51:57.192Z,18.55
2018-09-09T20:54:25.394Z,18.54
2018-09-09T20:56:53.444Z,18.51
2018-09-09T20:59:21.493Z,18.49
2018-09-09T21:01:49.556Z,18.47
2018-09-09T21:04:17.605Z,18.45
2018-09-09T21:06:45.832Z,18.43
2018-09-09T21:09:14.164Z,18.41
2018-09-09T21:11:42.941Z,18.40
2018-09-09T21:14:11.128Z,18.36
2018-09-09T21:16:39.326Z,18.32
2018-09-09T21:19:07.469Z,18.28
2018-09-09T21:21:35.661Z,18.23
2018-09-09T21:24:04.723Z,18.19
2018-09-09T21:26:32.796Z,18.18
2018-09-09T21:29:00.850Z,18.15
2018-09-09T21:31:29.712Z,18.11
2018-09-09T21:33:57.757Z,18.08
2018-09-09T21:36:25.811Z,18.06
2018-09-09T21:38:53.859Z,18.07
2018-09-09T21:41:21.914Z,18.05
2018-09-09T21:43:49.951Z,18.03
2018-09-09T21:46:18.004Z,18.02
2018-09-09T21:48:46.205Z,18.00
2018-09-09T21:51:14.258Z,17.98
2018-09-09T21:53:42.305Z,17.95
2018-09-09T21:56:10.727Z,17.90
2018-09-09T21:58:38.785Z,17.84
2018-09-09T22:01:12.093Z,17.78
2018-09-09T22:03:40.171Z,17.75
2018-09-09T22:06:08.202Z,17.74
2018-09-09T22:08:36.265Z,17.72
2018-09-09T22:11:04.783Z,17.71
2018-09-09T22:13:33.006Z,17.70
2018-09-09T22:16:01.055Z,17.71
2018-09-09T22:18:29.161Z,17.71
2018-09-09T22:20:57.199Z,17.71
2018-09-09T22:23:25.237Z,17.68
2018-09-09T22:25:53.378Z,17.67
2018-09-09T22:28:21.413Z,17.65
2018-09-09T22:30:49.463Z,17.63
2018-09-09T22:33:17.524Z,17.63
2018-09-09T22:35:45.584Z,17.61
2018-09-09T22:38:13.892Z,17.62
2018-09-09T22:40:42.141Z,17.61
2018-09-09T22:43:10.199Z,17.61
2018-09-09T22:45:38.237Z,17.60
2018-09-09T22:48:06.297Z,17.60
2018-09-09T22:50:34.357Z,17.59
2018-09-09T22:53:02.481Z,17.59
2018-09-09T22:55:31.034Z,17.57
2018-09-09T22:57:59.510Z,17.55
2018-09-09T23:00:27.546Z,17.54
2018-09-09T23:02:55.731Z,17.52
2018-09-09T23:05:23.817Z,17.51
2018-09-09T23:07:51.856Z,17.50
2018-09-09T23:10:19.903Z,17.48
2018-09-09T23:12:47.952Z,17.46
2018-09-09T23:15:16.008Z,17.45
2018-09-09T23:17:44.089Z,17.42
2018-09-09T23:20:12.444Z,17.43
2018-09-09T23:22:40.838Z,17.44
2018-09-09T23:25:08.903Z,17.44
2018-09-09T23:27:36.987Z,17.44
2018-09-09T23:30:05.377Z,17.44
2018-09-09T23:32:33.437Z,17.44
2018-09-09T23:35:01.487Z,17.43
2018-09-09T23:37:29.609Z,17.43
2018-09-09T23:39:57.652Z,17.42
2018-09-09T23:42:25.724Z,17.41
2018-09-09T23:44:53.963Z,17.39
2018-09-09T23:47:22.177Z,17.41
2018-09-09T23:49:50.221Z,17.41
2018-09-09T23:52:18.273Z,17.43
2018-09-09T23:54:46.524Z,17.44
2018-09-09T23:57:14.578Z,17.43
2018-09-09T23:59:42.641Z,17.48
